createdAt,value
2019-05-16T00:00:35.836Z,1005.21
2019-05-16T00:01:38.166Z,1005.24
2019-05-16T00:02:37.730Z,1005.27
2019-05-16T00:03:38.299Z,1005.20
2019-05-16T00:04:37.764Z,1005.22
2019-05-16T00:05:50.040Z,1005.22
2019-05-16T00:06:35.765Z,1005.22
2019-05-16T00:07:35.755Z,1005.23
2019-05-16T00:08:35.743Z,1005.20
2019-05-16T00:09:38.007Z,1005.24
2019-05-16T00:10:35.721Z,1005.24
2019-05-16T00:11:35.711Z,1005.27
2019-05-16T00:12:35.717Z,1005.19
2019-05-16T00:13:35.688Z,1005.17
2019-05-16T00:14:35.676Z,1005.14
2019-05-16T00:15:37.713Z,1005.15
2019-05-16T00:16:37.857Z,1005.17
2019-05-16T00:17:38.272Z,1005.12
2019-05-16T00:18:35.638Z,1005.14
2019-05-16T00:19:38.012Z,1005.14
2019-05-16T00:20:35.609Z,1005.14
2019-05-16T00:21:35.602Z,1005.15
2019-05-16T00:22:35.591Z,1005.12
2019-05-16T00:23:37.704Z,1005.13
2019-05-16T00:24:35.564Z,1005.10
2019-05-16T00:25:35.553Z,1005.06
2019-05-16T00:26:35.541Z,1005.09
2019-05-16T00:27:35.531Z,1005.08
2019-05-16T00:28:37.861Z,1005.07
2019-05-16T00:29:35.508Z,1005.05
2019-05-16T00:30:35.499Z,1005.05
2019-05-16T00:31:35.484Z,1005.04
2019-05-16T00:32:35.473Z,1005.03
2019-05-16T00:33:35.463Z,1005.03
2019-05-16T00:34:35.450Z,1005.00
2019-05-16T00:35:35.440Z,1004.99
2019-05-16T00:36:35.427Z,1005.03
2019-05-16T00:37:35.421Z,1005.02
2019-05-16T00:38:35.404Z,1004.95
2019-05-16T00:39:35.398Z,1004.95
2019-05-16T00:40:35.381Z,1004.90
2019-05-16T00:41:35.372Z,1004.93
2019-05-16T00:42:35.358Z,1004.93
2019-05-16T00:43:35.346Z,1004.95
2019-05-16T00:44:35.335Z,1004.93
2019-05-16T00:45:35.323Z,1004.92
2019-05-16T00:46:35.312Z,1004.91
2019-05-16T00:47:35.299Z,1004.90
2019-05-16T00:48:35.288Z,1004.85
2019-05-16T00:49:35.328Z,1004.86
2019-05-16T00:50:35.265Z,1004.83
2019-05-16T00:51:37.578Z,1004.81
2019-05-16T00:52:35.242Z,1004.83
2019-05-16T00:53:35.229Z,1004.80
2019-05-16T00:54:35.268Z,1004.81
2019-05-16T00:55:35.207Z,1004.81
2019-05-16T00:56:35.195Z,1004.82
2019-05-16T00:57:35.182Z,1004.81
2019-05-16T00:58:35.172Z,1004.78
2019-05-16T00:59:35.159Z,1004.78
2019-05-16T01:00:35.147Z,1004.79
2019-05-16T01:01:35.135Z,1004.78
2019-05-16T01:02:35.122Z,1004.77
2019-05-16T01:03:35.111Z,1004.79
2019-05-16T01:04:35.149Z,1004.81
2019-05-16T01:05:35.088Z,1004.76
2019-05-16T01:06:35.075Z,1004.78
2019-05-16T01:07:35.064Z,1004.77
2019-05-16T01:08:35.054Z,1004.83
2019-05-16T01:09:35.040Z,1004.85
2019-05-16T01:10:35.027Z,1004.82
2019-05-16T01:11:35.015Z,1004.84
2019-05-16T01:12:35.003Z,1004.77
2019-05-16T01:13:34.991Z,1004.82
2019-05-16T01:14:34.978Z,1004.79
2019-05-16T01:15:34.966Z,1004.79
2019-05-16T01:16:34.955Z,1004.78
2019-05-16T01:17:34.943Z,1004.80
2019-05-16T01:18:34.930Z,1004.77
2019-05-16T01:19:34.918Z,1004.76
2019-05-16T01:20:34.906Z,1004.77
2019-05-16T01:21:34.897Z,1004.74
2019-05-16T01:22:34.881Z,1004.72
2019-05-16T01:23:34.870Z,1004.70
2019-05-16T01:24:34.861Z,1004.72
2019-05-16T01:25:34.846Z,1004.71
2019-05-16T01:26:34.833Z,1004.69
2019-05-16T01:27:34.822Z,1004.69
2019-05-16T01:28:34.808Z,1004.70
2019-05-16T01:29:34.797Z,1004.70
2019-05-16T01:30:34.784Z,1004.72
2019-05-16T01:31:34.771Z,1004.72
2019-05-16T01:32:34.759Z,1004.71
2019-05-16T01:33:34.747Z,1004.71
2019-05-16T01:34:34.734Z,1004.71
2019-05-16T01:35:34.725Z,1004.67
2019-05-16T01:36:37.997Z,1004.67
2019-05-16T01:37:34.699Z,1004.67
2019-05-16T01:38:34.686Z,1004.69
2019-05-16T01:39:34.674Z,1004.70
2019-05-16T01:40:34.662Z,1004.69
2019-05-16T01:41:34.650Z,1004.68
2019-05-16T01:42:34.636Z,1004.69
2019-05-16T01:43:34.624Z,1004.70
2019-05-16T01:44:34.616Z,1004.70
2019-05-16T01:45:34.600Z,1004.67
2019-05-16T01:46:34.586Z,1004.66
2019-05-16T01:47:34.589Z,1004.69
2019-05-16T01:48:34.562Z,1004.67
2019-05-16T01:49:34.549Z,1004.68
2019-05-16T01:50:34.593Z,1004.67
2019-05-16T01:51:34.525Z,1004.68
2019-05-16T01:52:34.513Z,1004.66
2019-05-16T01:53:34.500Z,1004.65
2019-05-16T01:54:34.488Z,1004.63
2019-05-16T01:55:34.475Z,1004.61
2019-05-16T01:56:34.462Z,1004.62
2019-05-16T01:57:34.450Z,1004.59
2019-05-16T01:58:34.437Z,1004.58
2019-05-16T01:59:34.426Z,1004.60
2019-05-16T02:00:37.708Z,1004.60
2019-05-16T02:01:34.400Z,1004.60
2019-05-16T02:02:34.387Z,1004.60
2019-05-16T02:03:34.375Z,1004.57
2019-05-16T02:04:34.368Z,1004.55
2019-05-16T02:05:34.351Z,1004.56
2019-05-16T02:06:46.426Z,1004.49
2019-05-16T02:07:34.331Z,1004.49
2019-05-16T02:08:34.312Z,1004.48
2019-05-16T02:09:34.301Z,1004.49
2019-05-16T02:10:34.287Z,1004.50
2019-05-16T02:11:34.274Z,1004.49
2019-05-16T02:12:34.262Z,1004.46
2019-05-16T02:13:34.249Z,1004.45
2019-05-16T02:14:34.237Z,1004.43
2019-05-16T02:15:34.224Z,1004.40
2019-05-16T02:16:34.211Z,1004.41
2019-05-16T02:17:34.199Z,1004.37
2019-05-16T02:18:34.186Z,1004.38
2019-05-16T02:19:34.173Z,1004.38
2019-05-16T02:20:34.211Z,1004.38
2019-05-16T02:21:34.148Z,1004.37
2019-05-16T02:22:34.138Z,1004.36
2019-05-16T02:23:34.123Z,1004.36
2019-05-16T02:24:34.110Z,1004.35
2019-05-16T02:25:34.098Z,1004.33
2019-05-16T02:26:34.087Z,1004.35
2019-05-16T02:27:34.080Z,1004.32
2019-05-16T02:28:40.099Z,1004.30
2019-05-16T02:29:34.051Z,1004.30
2019-05-16T02:30:34.035Z,1004.28
2019-05-16T02:31:34.022Z,1004.26
2019-05-16T02:32:34.009Z,1004.28
2019-05-16T02:33:33.998Z,1004.26
2019-05-16T02:34:33.986Z,1004.24
2019-05-16T02:35:33.971Z,1004.24
2019-05-16T02:36:33.958Z,1004.25
2019-05-16T02:37:35.002Z,1004.26
2019-05-16T02:38:33.931Z,1004.24
2019-05-16T02:39:33.920Z,1004.25
2019-05-16T02:40:33.908Z,1004.27
2019-05-16T02:41:33.894Z,1004.23
2019-05-16T02:42:33.880Z,1004.21
2019-05-16T02:43:33.885Z,1004.24
2019-05-16T02:44:33.867Z,1004.25
2019-05-16T02:45:33.853Z,1004.24
2019-05-16T02:46:33.831Z,1004.24
2019-05-16T02:47:35.082Z,1004.23
2019-05-16T02:48:35.504Z,1004.23
2019-05-16T02:49:34.319Z,1004.23
2019-05-16T02:50:33.780Z,1004.21
2019-05-16T02:51:33.869Z,1004.20
2019-05-16T02:52:33.755Z,1004.23
2019-05-16T02:53:33.742Z,1004.23
2019-05-16T02:54:33.732Z,1004.22
2019-05-16T02:55:33.723Z,1004.23
2019-05-16T02:56:33.705Z,1004.19
2019-05-16T02:57:33.693Z,1004.20
2019-05-16T02:58:33.680Z,1004.18
2019-05-16T02:59:33.668Z,1004.17
2019-05-16T03:00:33.655Z,1004.16
2019-05-16T03:01:33.663Z,1004.13
2019-05-16T03:02:33.630Z,1004.17
2019-05-16T03:03:33.621Z,1004.19
2019-05-16T03:04:33.607Z,1004.16
2019-05-16T03:05:33.594Z,1004.14
2019-05-16T03:06:33.597Z,1004.15
2019-05-16T03:07:41.525Z,1004.18
2019-05-16T03:08:33.555Z,1004.15
2019-05-16T03:09:33.544Z,1004.15
2019-05-16T03:10:33.531Z,1004.13
2019-05-16T03:11:33.519Z,1004.10
2019-05-16T03:12:33.507Z,1004.11
2019-05-16T03:13:33.497Z,1004.10
2019-05-16T03:14:33.494Z,1004.07
2019-05-16T03:15:33.479Z,1004.08
2019-05-16T03:16:33.459Z,1004.09
2019-05-16T03:17:33.446Z,1004.06
2019-05-16T03:18:33.432Z,1004.07
2019-05-16T03:19:33.423Z,1004.07
2019-05-16T03:20:33.414Z,1004.09
2019-05-16T03:21:33.401Z,1004.06
2019-05-16T03:22:33.388Z,1004.07
2019-05-16T03:23:33.376Z,1004.08
2019-05-16T03:24:33.359Z,1004.07
2019-05-16T03:25:33.355Z,1004.06
2019-05-16T03:26:33.387Z,1004.10
2019-05-16T03:27:33.324Z,1004.06
2019-05-16T03:28:33.319Z,1004.06
2019-05-16T03:29:33.303Z,1004.08
2019-05-16T03:30:34.788Z,1004.05
2019-05-16T03:31:34.463Z,1004.07
2019-05-16T03:32:34.358Z,1004.07
2019-05-16T03:33:41.504Z,1004.08
2019-05-16T03:34:34.291Z,1004.12
2019-05-16T03:35:34.332Z,1004.11
2019-05-16T03:36:34.727Z,1004.14
2019-05-16T03:37:50.148Z,1004.10
2019-05-16T03:38:33.189Z,1004.12
2019-05-16T03:39:33.179Z,1004.12
2019-05-16T03:40:33.167Z,1004.11
2019-05-16T03:41:33.154Z,1004.13
2019-05-16T03:42:33.142Z,1004.15
2019-05-16T03:43:33.130Z,1004.11
2019-05-16T03:44:33.118Z,1004.13
2019-05-16T03:45:33.106Z,1004.10
2019-05-16T03:46:33.099Z,1004.12
2019-05-16T03:47:33.094Z,1004.09
2019-05-16T03:48:33.070Z,1004.14
2019-05-16T03:49:33.059Z,1004.12
2019-05-16T03:50:33.053Z,1004.08
2019-05-16T03:51:33.048Z,1004.09
2019-05-16T03:52:33.023Z,1004.10
2019-05-16T03:53:33.010Z,1004.08
2019-05-16T03:54:33.005Z,1004.10
2019-05-16T03:55:32.984Z,1004.08
2019-05-16T03:56:32.975Z,1004.07
2019-05-16T03:57:32.961Z,1004.08
2019-05-16T03:58:32.947Z,1004.06
2019-05-16T03:59:32.935Z,1004.08
2019-05-16T04:00:32.925Z,1004.04
2019-05-16T04:01:32.912Z,1004.03
2019-05-16T04:02:32.900Z,1004.03
2019-05-16T04:03:33.474Z,1004.02
2019-05-16T04:04:32.885Z,1003.99
2019-05-16T04:05:32.867Z,1003.99
2019-05-16T04:06:32.866Z,1003.98
2019-05-16T04:07:32.838Z,1003.95
2019-05-16T04:08:32.828Z,1003.98
2019-05-16T04:09:32.817Z,1003.96
2019-05-16T04:10:32.804Z,1003.93
2019-05-16T04:11:32.794Z,1003.93
2019-05-16T04:12:32.779Z,1003.93
2019-05-16T04:13:32.769Z,1003.90
2019-05-16T04:14:32.754Z,1003.91
2019-05-16T04:15:32.743Z,1003.90
2019-05-16T04:16:32.731Z,1003.91
2019-05-16T04:17:32.718Z,1003.89
2019-05-16T04:18:32.705Z,1003.90
2019-05-16T04:19:32.695Z,1003.86
2019-05-16T04:20:32.685Z,1003.87
2019-05-16T04:21:32.676Z,1003.84
2019-05-16T04:22:32.660Z,1003.88
2019-05-16T04:23:32.647Z,1003.86
2019-05-16T04:24:32.640Z,1003.82
2019-05-16T04:25:32.627Z,1003.85
2019-05-16T04:26:35.890Z,1003.83
2019-05-16T04:27:32.598Z,1003.84
2019-05-16T04:28:32.585Z,1003.89
2019-05-16T04:29:32.575Z,1003.81
2019-05-16T04:30:32.560Z,1003.83
2019-05-16T04:31:32.548Z,1003.82
2019-05-16T04:32:32.537Z,1003.84
2019-05-16T04:33:32.528Z,1003.85
2019-05-16T04:34:32.512Z,1003.82
2019-05-16T04:35:32.503Z,1003.84
2019-05-16T04:36:32.900Z,1003.82
2019-05-16T04:37:32.478Z,1003.81
2019-05-16T04:38:40.916Z,1003.82
2019-05-16T04:39:32.455Z,1003.83
2019-05-16T04:40:32.440Z,1003.83
2019-05-16T04:41:32.429Z,1003.85
2019-05-16T04:42:32.415Z,1003.83
2019-05-16T04:43:32.405Z,1003.82
2019-05-16T04:44:32.395Z,1003.79
2019-05-16T04:45:32.380Z,1003.79
2019-05-16T04:46:32.367Z,1003.81
2019-05-16T04:47:32.355Z,1003.81
2019-05-16T04:48:32.345Z,1003.77
2019-05-16T04:49:32.340Z,1003.77
2019-05-16T04:50:32.318Z,1003.79
2019-05-16T04:51:32.312Z,1003.76
2019-05-16T04:52:32.303Z,1003.78
2019-05-16T04:53:32.283Z,1003.77
2019-05-16T04:54:32.274Z,1003.76
2019-05-16T04:55:32.264Z,1003.80
2019-05-16T04:56:32.256Z,1003.75
2019-05-16T04:57:32.241Z,1003.78
2019-05-16T04:58:32.222Z,1003.75
2019-05-16T04:59:32.220Z,1003.74
2019-05-16T05:00:32.204Z,1003.73
2019-05-16T05:01:32.191Z,1003.73
2019-05-16T05:02:32.178Z,1003.73
2019-05-16T05:03:32.168Z,1003.76
2019-05-16T05:04:32.162Z,1003.76
2019-05-16T05:05:33.361Z,1003.72
2019-05-16T05:06:32.129Z,1003.75
2019-05-16T05:07:32.117Z,1003.74
2019-05-16T05:08:47.459Z,1003.73
2019-05-16T05:09:32.096Z,1003.75
2019-05-16T05:10:32.084Z,1003.72
2019-05-16T05:11:32.080Z,1003.71
2019-05-16T05:12:32.071Z,1003.68
2019-05-16T05:13:32.055Z,1003.68
2019-05-16T05:14:32.041Z,1003.68
2019-05-16T05:15:32.024Z,1003.68
2019-05-16T05:16:32.014Z,1003.68
2019-05-16T05:17:32.002Z,1003.69
2019-05-16T05:18:31.993Z,1003.67
2019-05-16T05:19:31.980Z,1003.67
2019-05-16T05:20:31.968Z,1003.67
2019-05-16T05:21:31.957Z,1003.68
2019-05-16T05:22:31.945Z,1003.68
2019-05-16T05:23:31.984Z,1003.67
2019-05-16T05:24:31.922Z,1003.69
2019-05-16T05:25:31.915Z,1003.68
2019-05-16T05:26:31.906Z,1003.66
2019-05-16T05:27:31.889Z,1003.66
2019-05-16T05:28:31.878Z,1003.70
2019-05-16T05:29:31.867Z,1003.70
2019-05-16T05:30:31.857Z,1003.68
2019-05-16T05:31:35.211Z,1003.68
2019-05-16T05:32:31.835Z,1003.66
2019-05-16T05:33:31.826Z,1003.67
2019-05-16T05:34:31.813Z,1003.68
2019-05-16T05:35:31.804Z,1003.65
2019-05-16T05:36:31.793Z,1003.67
2019-05-16T05:37:31.789Z,1003.67
2019-05-16T05:38:31.770Z,1003.67
2019-05-16T05:39:31.760Z,1003.64
2019-05-16T05:40:31.757Z,1003.63
2019-05-16T05:41:31.741Z,1003.66
2019-05-16T05:42:31.729Z,1003.65
2019-05-16T05:43:31.719Z,1003.68
2019-05-16T05:44:31.709Z,1003.64
2019-05-16T05:45:31.704Z,1003.69
2019-05-16T05:46:31.852Z,1003.66
2019-05-16T05:47:31.687Z,1003.67
2019-05-16T05:48:31.670Z,1003.64
2019-05-16T05:49:31.658Z,1003.64
2019-05-16T05:50:31.647Z,1003.66
2019-05-16T05:51:31.637Z,1003.64
2019-05-16T05:52:31.631Z,1003.60
2019-05-16T05:53:31.617Z,1003.65
2019-05-16T05:54:31.607Z,1003.60
2019-05-16T05:55:31.597Z,1003.63
2019-05-16T05:56:31.586Z,1003.60
2019-05-16T05:57:31.576Z,1003.62
2019-05-16T05:58:31.565Z,1003.61
2019-05-16T05:59:31.555Z,1003.60
2019-05-16T06:00:31.547Z,1003.58
2019-05-16T06:01:31.728Z,1003.56
2019-05-16T06:02:31.530Z,1003.58
2019-05-16T06:03:32.932Z,1003.56
2019-05-16T06:04:31.503Z,1003.54
2019-05-16T06:05:31.493Z,1003.59
2019-05-16T06:06:31.482Z,1003.57
2019-05-16T06:07:31.472Z,1003.57
2019-05-16T06:08:31.512Z,1003.54
2019-05-16T06:09:33.042Z,1003.53
2019-05-16T06:10:31.441Z,1003.53
2019-05-16T06:11:31.453Z,1003.50
2019-05-16T06:12:31.421Z,1003.51
2019-05-16T06:13:31.411Z,1003.52
2019-05-16T06:14:31.401Z,1003.50
2019-05-16T06:15:31.390Z,1003.47
2019-05-16T06:16:31.381Z,1003.52
2019-05-16T06:17:31.370Z,1003.47
2019-05-16T06:18:31.360Z,1003.44
2019-05-16T06:19:31.349Z,1003.45
2019-05-16T06:20:31.339Z,1003.45
2019-05-16T06:21:33.212Z,1003.43
2019-05-16T06:22:31.318Z,1003.43
2019-05-16T06:23:31.386Z,1003.44
2019-05-16T06:24:31.301Z,1003.46
2019-05-16T06:25:31.718Z,1003.43
2019-05-16T06:26:31.278Z,1003.45
2019-05-16T06:27:31.268Z,1003.41
2019-05-16T06:28:31.258Z,1003.42
2019-05-16T06:29:31.250Z,1003.45
2019-05-16T06:30:31.238Z,1003.39
2019-05-16T06:31:31.495Z,1003.41
2019-05-16T06:32:31.220Z,1003.37
2019-05-16T06:33:31.208Z,1003.36
2019-05-16T06:34:31.200Z,1003.38
2019-05-16T06:35:31.188Z,1003.34
2019-05-16T06:36:31.179Z,1003.35
2019-05-16T06:37:31.169Z,1003.33
2019-05-16T06:38:31.161Z,1003.28
2019-05-16T06:39:41.154Z,1003.28
2019-05-16T06:40:31.140Z,1003.28
2019-05-16T06:41:31.130Z,1003.28
2019-05-16T06:42:31.119Z,1003.27
2019-05-16T06:43:31.131Z,1003.27
2019-05-16T06:44:31.120Z,1003.24
2019-05-16T06:45:32.080Z,1003.25
2019-05-16T06:46:31.082Z,1003.23
2019-05-16T06:47:31.076Z,1003.25
2019-05-16T06:48:31.064Z,1003.25
2019-05-16T06:49:31.055Z,1003.23
2019-05-16T06:50:31.044Z,1003.28
2019-05-16T06:51:31.036Z,1003.25
2019-05-16T06:52:31.026Z,1003.29
2019-05-16T06:53:31.017Z,1003.27
2019-05-16T06:54:31.015Z,1003.23
2019-05-16T06:55:30.999Z,1003.24
2019-05-16T06:56:31.028Z,1003.22
2019-05-16T06:57:30.982Z,1003.24
2019-05-16T06:58:43.686Z,1003.25
2019-05-16T06:59:30.963Z,1003.30
2019-05-16T07:00:30.955Z,1003.29
2019-05-16T07:01:30.946Z,1003.33
2019-05-16T07:02:34.418Z,1003.35
2019-05-16T07:03:31.106Z,1003.37
2019-05-16T07:04:30.921Z,1003.37
2019-05-16T07:05:30.912Z,1003.30
2019-05-16T07:06:51.657Z,1003.30
2019-05-16T07:07:30.936Z,1003.30
2019-05-16T07:08:31.309Z,1003.33
2019-05-16T07:09:30.884Z,1003.32
2019-05-16T07:10:30.890Z,1003.34
2019-05-16T07:11:30.873Z,1003.35
2019-05-16T07:12:33.850Z,1003.33
2019-05-16T07:13:30.861Z,1003.34
2019-05-16T07:14:31.441Z,1003.35
2019-05-16T07:15:30.852Z,1003.27
2019-05-16T07:16:30.849Z,1003.35
2019-05-16T07:17:30.845Z,1003.38
2019-05-16T07:18:31.249Z,1003.31
2019-05-16T07:19:30.845Z,1003.36
2019-05-16T07:20:30.837Z,1003.28
2019-05-16T07:21:31.289Z,1003.33
2019-05-16T07:22:31.338Z,1003.35
2019-05-16T07:23:30.828Z,1003.33
2019-05-16T07:24:30.877Z,1003.33
2019-05-16T07:25:30.824Z,1003.28
2019-05-16T07:26:31.089Z,1003.28
2019-05-16T07:27:31.046Z,1003.27
2019-05-16T07:28:30.818Z,1003.28
2019-05-16T07:29:31.027Z,1003.24
2019-05-16T07:30:30.813Z,1003.29
2019-05-16T07:31:30.812Z,1003.28
2019-05-16T07:32:30.809Z,1003.34
2019-05-16T07:33:31.383Z,1003.31
2019-05-16T07:34:31.265Z,1003.34
2019-05-16T07:35:30.851Z,1003.32
2019-05-16T07:36:31.590Z,1003.32
2019-05-16T07:37:31.592Z,1003.29
2019-05-16T07:38:31.141Z,1003.23
2019-05-16T07:39:30.851Z,1003.25
2019-05-16T07:40:30.946Z,1003.23
2019-05-16T07:41:31.155Z,1003.20
2019-05-16T07:42:30.908Z,1003.23
2019-05-16T07:43:31.174Z,1003.16
2019-05-16T07:44:31.193Z,1003.16
2019-05-16T07:45:30.954Z,1003.14
2019-05-16T07:46:31.618Z,1003.16
2019-05-16T07:47:31.042Z,1003.13
2019-05-16T07:48:31.762Z,1003.09
2019-05-16T07:49:30.817Z,1003.10
2019-05-16T07:50:30.766Z,1003.11
2019-05-16T07:51:31.125Z,1003.07
2019-05-16T07:52:35.847Z,1003.12
2019-05-16T07:53:33.178Z,1003.07
2019-05-16T07:54:34.427Z,1003.08
2019-05-16T07:55:30.936Z,1003.02
2019-05-16T07:56:31.231Z,1003.00
2019-05-16T07:57:30.768Z,1002.98
2019-05-16T07:58:31.484Z,1002.95
2019-05-16T07:59:30.777Z,1003.02
2019-05-16T08:00:48.386Z,1002.95
2019-05-16T08:01:30.933Z,1003.00
2019-05-16T08:02:31.271Z,1002.93
2019-05-16T08:03:30.776Z,1002.93
2019-05-16T08:04:30.782Z,1002.92
2019-05-16T08:05:33.556Z,1002.93
2019-05-16T08:06:33.965Z,1002.89
2019-05-16T08:07:33.534Z,1002.87
2019-05-16T08:08:31.665Z,1002.85
2019-05-16T08:09:30.870Z,1002.87
2019-05-16T08:10:40.259Z,1002.89
2019-05-16T08:11:30.796Z,1002.81
2019-05-16T08:12:33.035Z,1002.84
2019-05-16T08:13:31.109Z,1002.88
2019-05-16T08:14:34.841Z,1002.91
2019-05-16T08:15:30.806Z,1002.89
2019-05-16T08:16:30.916Z,1002.90
2019-05-16T08:17:31.527Z,1002.89
2019-05-16T08:18:30.829Z,1002.89
2019-05-16T08:19:30.913Z,1002.80
2019-05-16T08:20:31.345Z,1002.82
2019-05-16T08:21:31.046Z,1002.79
2019-05-16T08:22:30.991Z,1002.83
2019-05-16T08:23:30.949Z,1002.83
2019-05-16T08:25:31.449Z,1002.76
2019-05-16T08:26:32.217Z,1002.75
2019-05-16T08:27:31.504Z,1002.74
2019-05-16T08:28:31.183Z,1002.76
2019-05-16T08:29:31.701Z,1002.72
2019-05-16T08:31:31.746Z,1002.65
2019-05-16T08:32:31.343Z,1002.66
2019-05-16T08:33:21.260Z,1002.71
2019-05-16T08:33:32.091Z,1002.69
2019-05-16T08:34:32.208Z,1002.65
2019-05-16T08:35:31.663Z,1002.65
2019-05-16T08:36:31.443Z,1002.66
2019-05-16T08:37:38.458Z,1002.66
2019-05-16T08:38:31.114Z,1002.68
2019-05-16T08:39:31.317Z,1002.69
2019-05-16T08:40:31.600Z,1002.77
2019-05-16T08:41:31.712Z,1002.78
2019-05-16T08:42:32.239Z,1002.71
2019-05-16T08:43:31.730Z,1002.71
2019-05-16T08:44:32.368Z,1002.67
2019-05-16T08:45:31.552Z,1002.67
2019-05-16T08:46:32.299Z,1002.67
2019-05-16T08:47:32.155Z,1002.69
2019-05-16T08:48:32.143Z,1002.61
2019-05-16T08:49:30.931Z,1002.64
2019-05-16T08:50:05.721Z,1002.81
2019-05-16T08:50:35.111Z,1002.60
2019-05-16T08:51:33.200Z,1002.60
2019-05-16T08:52:31.699Z,1002.65
2019-05-16T08:53:31.846Z,1002.65
2019-05-16T08:55:31.451Z,1002.63
2019-05-16T08:56:31.889Z,1002.62
2019-05-16T08:57:32.725Z,1002.59
2019-05-16T08:58:34.375Z,1002.57
2019-05-16T08:59:33.941Z,1002.55
2019-05-16T09:00:33.457Z,1002.57
2019-05-16T09:01:34.965Z,1002.55
2019-05-16T09:02:36.442Z,1002.55
2019-05-16T09:03:32.290Z,1002.53
2019-05-16T09:04:33.792Z,1002.56
2019-05-16T09:05:31.612Z,1002.52
2019-05-16T09:06:32.048Z,1002.55
2019-05-16T09:07:31.840Z,1002.51
2019-05-16T09:08:30.977Z,1002.49
2019-05-16T09:10:30.562Z,1002.63
2019-05-16T09:10:31.044Z,1002.48
2019-05-16T09:10:59.660Z,1002.51
2019-05-16T09:11:40.704Z,1002.51
2019-05-16T09:12:30.985Z,1002.52
2019-05-16T09:13:30.990Z,1002.53
2019-05-16T09:14:35.202Z,1002.55
2019-05-16T09:15:31.040Z,1002.55
2019-05-16T09:16:31.005Z,1002.54
2019-05-16T09:17:31.005Z,1002.54
2019-05-16T09:18:40.549Z,1002.53
2019-05-16T09:19:31.010Z,1002.58
2019-05-16T09:20:31.011Z,1002.52
2019-05-16T09:21:31.020Z,1002.52
2019-05-16T09:22:31.022Z,1002.53
2019-05-16T09:23:31.017Z,1002.44
2019-05-16T09:24:31.019Z,1002.49
2019-05-16T09:25:31.023Z,1002.47
2019-05-16T09:26:31.022Z,1002.49
2019-05-16T09:27:31.020Z,1002.44
2019-05-16T09:28:31.021Z,1002.44
2019-05-16T09:29:31.023Z,1002.42
2019-05-16T09:30:31.021Z,1002.38
2019-05-16T09:31:31.024Z,1002.43
2019-05-16T09:32:31.023Z,1002.41
2019-05-16T09:33:31.017Z,1002.36
2019-05-16T09:34:31.018Z,1002.36
2019-05-16T09:35:31.026Z,1002.34
2019-05-16T09:36:31.012Z,1002.36
2019-05-16T09:37:31.012Z,1002.35
2019-05-16T09:38:31.009Z,1002.30
2019-05-16T09:39:31.007Z,1002.32
2019-05-16T09:40:31.007Z,1002.33
2019-05-16T09:41:46.279Z,1002.27
2019-05-16T09:42:31.000Z,1002.26
2019-05-16T09:43:30.998Z,1002.24
2019-05-16T09:44:30.995Z,1002.25
2019-05-16T09:45:30.994Z,1002.16
2019-05-16T09:46:31.012Z,1002.28
2019-05-16T09:47:30.992Z,1002.22
2019-05-16T09:48:30.994Z,1002.20
2019-05-16T09:49:30.993Z,1002.22
2019-05-16T09:50:30.983Z,1002.20
2019-05-16T09:51:30.981Z,1002.16
2019-05-16T09:52:30.974Z,1002.14
2019-05-16T09:53:30.973Z,1002.19
2019-05-16T09:54:30.968Z,1002.13
2019-05-16T09:55:30.968Z,1002.13
2019-05-16T09:56:30.963Z,1002.09
2019-05-16T09:57:30.962Z,1002.08
2019-05-16T09:58:30.958Z,1002.09
2019-05-16T09:59:30.956Z,1002.09
2019-05-16T10:00:30.958Z,1002.08
2019-05-16T10:01:30.957Z,1002.05
2019-05-16T10:02:30.947Z,1002.11
2019-05-16T10:03:30.947Z,1002.09
2019-05-16T10:04:30.943Z,1002.04
2019-05-16T10:05:30.940Z,1002.09
2019-05-16T10:06:30.935Z,1002.11
2019-05-16T10:07:30.937Z,1002.04
2019-05-16T10:08:30.930Z,1002.07
2019-05-16T10:09:40.838Z,1002.16
2019-05-16T10:10:30.931Z,1002.13
2019-05-16T10:11:31.961Z,1002.08
2019-05-16T10:12:30.923Z,1002.04
2019-05-16T10:13:30.924Z,1002.02
2019-05-16T10:14:30.923Z,1002.04
2019-05-16T10:15:30.925Z,1001.99
2019-05-16T10:16:30.937Z,1002.03
2019-05-16T10:17:30.935Z,1001.99
2019-05-16T10:18:30.930Z,1001.95
2019-05-16T10:19:30.927Z,1001.96
2019-05-16T10:20:30.927Z,1001.97
2019-05-16T10:21:30.927Z,1001.89
2019-05-16T10:22:30.925Z,1001.92
2019-05-16T10:23:30.925Z,1001.95
2019-05-16T10:24:30.927Z,1001.94
2019-05-16T10:25:30.940Z,1001.94
2019-05-16T10:26:30.927Z,1001.95
2019-05-16T10:27:30.921Z,1001.96
2019-05-16T10:28:30.924Z,1001.88
2019-05-16T10:29:30.928Z,1001.87
2019-05-16T10:30:30.920Z,1001.90
2019-05-16T10:31:41.611Z,1001.90
2019-05-16T10:32:30.925Z,1001.85
2019-05-16T10:33:30.916Z,1001.88
2019-05-16T10:34:30.920Z,1001.91
2019-05-16T10:35:30.914Z,1001.91
2019-05-16T10:36:30.918Z,1001.90
2019-05-16T10:37:30.918Z,1001.85
2019-05-16T10:38:30.911Z,1001.86
2019-05-16T10:39:30.912Z,1001.98
2019-05-16T10:40:30.912Z,1001.98
2019-05-16T10:41:30.913Z,1001.93
2019-05-16T10:42:30.915Z,1001.99
2019-05-16T10:43:30.917Z,1001.97
2019-05-16T10:44:30.920Z,1001.97
2019-05-16T10:45:30.925Z,1001.95
2019-05-16T10:46:30.926Z,1001.80
2019-05-16T10:47:31.478Z,1001.78
2019-05-16T10:48:30.936Z,1001.78
2019-05-16T10:49:36.780Z,1001.79
2019-05-16T10:50:30.976Z,1001.78
2019-05-16T10:51:30.964Z,1001.84
2019-05-16T10:52:30.951Z,1001.78
2019-05-16T10:53:57.576Z,1001.87
2019-05-16T10:54:30.979Z,1001.77
2019-05-16T10:55:30.970Z,1001.78
2019-05-16T10:56:30.990Z,1001.68
2019-05-16T10:57:31.134Z,1001.72
2019-05-16T10:58:37.233Z,1001.70
2019-05-16T11:00:00.465Z,1001.73
2019-05-16T11:00:57.519Z,1001.68
2019-05-16T11:01:31.466Z,1001.74
2019-05-16T11:02:31.087Z,1001.70
2019-05-16T11:03:31.076Z,1001.76
2019-05-16T11:04:49.559Z,1001.70
2019-05-16T11:05:36.068Z,1001.66
2019-05-16T11:06:31.023Z,1001.73
2019-05-16T11:07:31.027Z,1001.67
2019-05-16T11:08:31.029Z,1001.59
2019-05-16T11:09:31.034Z,1001.66
2019-05-16T11:10:31.117Z,1001.66
2019-05-16T11:11:31.045Z,1001.55
2019-05-16T11:12:46.019Z,1001.56
2019-05-16T11:13:31.055Z,1001.57
2019-05-16T11:14:31.059Z,1001.55
2019-05-16T11:15:31.064Z,1001.55
2019-05-16T11:16:31.067Z,1001.51
2019-05-16T11:17:31.077Z,1001.55
2019-05-16T11:18:31.073Z,1001.52
2019-05-16T11:19:31.076Z,1001.56
2019-05-16T11:20:31.110Z,1001.53
2019-05-16T11:21:31.080Z,1001.46
2019-05-16T11:22:31.096Z,1001.47
2019-05-16T11:23:31.558Z,1001.46
2019-05-16T11:24:31.186Z,1001.41
2019-05-16T11:25:32.653Z,1001.42
2019-05-16T11:26:31.080Z,1001.42
2019-05-16T11:27:31.081Z,1001.47
2019-05-16T11:28:31.187Z,1001.46
2019-05-16T11:29:31.079Z,1001.45
2019-05-16T11:30:31.136Z,1001.46
2019-05-16T11:31:31.123Z,1001.41
2019-05-16T11:32:31.078Z,1001.46
2019-05-16T11:33:31.072Z,1001.43
2019-05-16T11:34:31.070Z,1001.42
2019-05-16T11:35:31.070Z,1001.38
2019-05-16T11:36:31.063Z,1001.41
2019-05-16T11:37:31.061Z,1001.42
2019-05-16T11:38:31.057Z,1001.41
2019-05-16T11:39:31.059Z,1001.35
2019-05-16T11:40:31.053Z,1001.40
2019-05-16T11:41:31.049Z,1001.34
2019-05-16T11:42:31.053Z,1001.36
2019-05-16T11:43:31.048Z,1001.34
2019-05-16T11:44:31.044Z,1001.30
2019-05-16T11:45:31.036Z,1001.33
2019-05-16T11:46:31.052Z,1001.33
2019-05-16T11:47:31.029Z,1001.35
2019-05-16T11:48:31.025Z,1001.37
2019-05-16T11:49:31.021Z,1001.35
2019-05-16T11:50:31.018Z,1001.36
2019-05-16T11:51:31.018Z,1001.35
2019-05-16T11:52:31.008Z,1001.38
2019-05-16T11:53:31.004Z,1001.39
2019-05-16T11:54:31.000Z,1001.34
2019-05-16T11:55:34.179Z,1001.39
2019-05-16T11:56:30.992Z,1001.36
2019-05-16T11:57:30.987Z,1001.35
2019-05-16T11:58:30.983Z,1001.30
2019-05-16T11:59:30.980Z,1001.30
2019-05-16T12:00:30.977Z,1001.30
2019-05-16T12:01:30.976Z,1001.28
2019-05-16T12:02:30.972Z,1001.25
2019-05-16T12:03:30.966Z,1001.32
2019-05-16T12:04:30.976Z,1001.25
2019-05-16T12:05:30.966Z,1001.29